sensor_id;sensor_type;location;lat;lon;timestamp;P1;durP1;ratioP1;P2;durP2;ratioP2
2638;SDS011;1329;51.384;7.122;2022-09-29T00:02:09;12.00;;;10.80;;
2638;SDS011;1329;51.384;7.122;2022-09-29T00:04:36;11.73;;;10.60;;
2638;SDS011;1329;51.384;7.122;2022-09-29T00:07:03;11.40;;;10.37;;
2638;SDS011;1329;51.384;7.122;2022-09-29T00:09:31;11.67;;;10.63;;
2638;SDS011;1329;51.384;7.122;2022-09-29T00:11:59;11.93;;;10.73;;
2638;SDS011;1329;51.384;7.122;2022-09-29T00:14:26;11.30;;;10.23;;
2638;SDS011;1329;51.384;7.122;2022-09-29T00:16:53;12.03;;;10.93;;
2638;SDS011;1329;51.384;7.122;2022-09-29T00:19:20;11.63;;;10.53;;
2638;SDS011;1329;51.384;7.122;2022-09-29T00:21:47;11.90;;;10.80;;
2638;SDS011;1329;51.384;7.122;2022-09-29T00:24:14;11.97;;;10.77;;
2638;SDS011;1329;51.384;7.122;2022-09-29T00:26:42;12.00;;;10.80;;
2638;SDS011;1329;51.384;7.122;2022-09-29T00:29:11;12.00;;;10.83;;
2638;SDS011;1329;51.384;7.122;2022-09-29T00:31:38;11.20;;;10.17;;
2638;SDS011;1329;51.384;7.122;2022-09-29T00:34:04;11.90;;;10.77;;
2638;SDS011;1329;51.384;7.122;2022-09-29T00:36:31;12.30;;;11.10;;
2638;SDS011;1329;51.384;7.122;2022-09-29T00:38:58;12.87;;;11.70;;
2638;SDS011;1329;51.384;7.122;2022-09-29T00:41:26;12.13;;;10.93;;
2638;SDS011;1329;51.384;7.122;2022-09-29T00:43:57;12.37;;;11.07;;
2638;SDS011;1329;51.384;7.122;2022-09-29T00:46:30;12.47;;;11.17;;
2638;SDS011;1329;51.384;7.122;2022-09-29T00:49:05;11.83;;;10.63;;
2638;SDS011;1329;51.384;7.122;2022-09-29T00:51:41;12.03;;;10.83;;
2638;SDS011;1329;51.384;7.122;2022-09-29T00:54:14;12.43;;;11.13;;
2638;SDS011;1329;51.384;7.122;2022-09-29T00:56:42;11.73;;;10.57;;
2638;SDS011;1329;51.384;7.122;2022-09-29T00:59:13;12.33;;;11.13;;
2638;SDS011;1329;51.384;7.122;2022-09-29T01:01:45;13.40;;;11.33;;
2638;SDS011;1329;51.384;7.122;2022-09-29T01:04:14;12.37;;;11.27;;
2638;SDS011;1329;51.384;7.122;2022-09-29T01:06:45;11.90;;;10.80;;
2638;SDS011;1329;51.384;7.122;2022-09-29T01:09:16;10.93;;;9.97;;
2638;SDS011;1329;51.384;7.122;2022-09-29T01:11:46;12.27;;;11.07;;
2638;SDS011;1329;51.384;7.122;2022-09-29T01:14:14;11.70;;;10.50;;
2638;SDS011;1329;51.384;7.122;2022-09-29T01:16:42;11.40;;;10.30;;
2638;SDS011;1329;51.384;7.122;2022-09-29T01:19:10;12.00;;;10.90;;
2638;SDS011;1329;51.384;7.122;2022-09-29T01:21:48;11.53;;;10.47;;
2638;SDS011;1329;51.384;7.122;2022-09-29T01:27:35;10.60;;;9.60;;
2638;SDS011;1329;51.384;7.122;2022-09-29T01:30:19;11.70;;;10.60;;
2638;SDS011;1329;51.384;7.122;2022-09-29T01:32:53;11.73;;;10.53;;
2638;SDS011;1329;51.384;7.122;2022-09-29T01:35:35;11.97;;;10.80;;
2638;SDS011;1329;51.384;7.122;2022-09-29T01:38:16;12.30;;;11.10;;
2638;SDS011;1329;51.384;7.122;2022-09-29T01:41:06;11.40;;;10.33;;
2638;SDS011;1329;51.384;7.122;2022-09-29T01:43:41;12.20;;;10.97;;
2638;SDS011;1329;51.384;7.122;2022-09-29T01:46:14;12.37;;;11.20;;
2638;SDS011;1329;51.384;7.122;2022-09-29T01:48:49;12.17;;;10.97;;
2638;SDS011;1329;51.384;7.122;2022-09-29T01:51:20;12.60;;;11.40;;
2638;SDS011;1329;51.384;7.122;2022-09-29T01:53:54;12.73;;;11.50;;
2638;SDS011;1329;51.384;7.122;2022-09-29T01:56:26;12.43;;;11.17;;
2638;SDS011;1329;51.384;7.122;2022-09-29T01:58:59;12.47;;;11.27;;
2638;SDS011;1329;51.384;7.122;2022-09-29T02:01:30;12.40;;;11.30;;
2638;SDS011;1329;51.384;7.122;2022-09-29T02:04:04;11.40;;;10.40;;
2638;SDS011;1329;51.384;7.122;2022-09-29T02:06:37;12.87;;;11.60;;
2638;SDS011;1329;51.384;7.122;2022-09-29T02:09:17;12.07;;;10.87;;
2638;SDS011;1329;51.384;7.122;2022-09-29T02:11:48;13.07;;;11.77;;
2638;SDS011;1329;51.384;7.122;2022-09-29T02:14:18;15.03;;;12.20;;
2638;SDS011;1329;51.384;7.122;2022-09-29T02:16:51;12.20;;;11.00;;
2638;SDS011;1329;51.384;7.122;2022-09-29T02:19:25;13.23;;;11.83;;
2638;SDS011;1329;51.384;7.122;2022-09-29T02:21:54;13.13;;;11.83;;
2638;SDS011;1329;51.384;7.122;2022-09-29T02:24:21;12.53;;;11.30;;
2638;SDS011;1329;51.384;7.122;2022-09-29T02:26:49;13.97;;;12.53;;
2638;SDS011;1329;51.384;7.122;2022-09-29T02:29:17;13.63;;;12.43;;
2638;SDS011;1329;51.384;7.122;2022-09-29T02:31:44;13.17;;;11.87;;
2638;SDS011;1329;51.384;7.122;2022-09-29T02:34:14;14.07;;;12.67;;
2638;SDS011;1329;51.384;7.122;2022-09-29T02:36:47;13.40;;;11.93;;
2638;SDS011;1329;51.384;7.122;2022-09-29T02:39:25;13.30;;;12.00;;
2638;SDS011;1329;51.384;7.122;2022-09-29T02:42:05;13.53;;;12.20;;
2638;SDS011;1329;51.384;7.122;2022-09-29T02:44:46;13.27;;;11.97;;
2638;SDS011;1329;51.384;7.122;2022-09-29T02:47:32;13.03;;;11.83;;
2638;SDS011;1329;51.384;7.122;2022-09-29T02:50:19;12.57;;;11.37;;
2638;SDS011;1329;51.384;7.122;2022-09-29T02:53:06;12.67;;;11.47;;
2638;SDS011;1329;51.384;7.122;2022-09-29T02:55:46;13.10;;;11.90;;
2638;SDS011;1329;51.384;7.122;2022-09-29T02:58:24;12.30;;;11.10;;
2638;SDS011;1329;51.384;7.122;2022-09-29T03:00:56;12.70;;;11.43;;
2638;SDS011;1329;51.384;7.122;2022-09-29T03:03:24;12.97;;;11.67;;
2638;SDS011;1329;51.384;7.122;2022-09-29T03:05:51;12.13;;;10.97;;
2638;SDS011;1329;51.384;7.122;2022-09-29T03:08:19;12.90;;;11.60;;
2638;SDS011;1329;51.384;7.122;2022-09-29T03:10:46;12.77;;;11.47;;
2638;SDS011;1329;51.384;7.122;2022-09-29T03:13:13;12.70;;;11.17;;
2638;SDS011;1329;51.384;7.122;2022-09-29T03:15:40;12.43;;;11.20;;
2638;SDS011;1329;51.384;7.122;2022-09-29T03:18:07;11.47;;;10.37;;
2638;SDS011;1329;51.384;7.122;2022-09-29T03:20:34;11.23;;;10.13;;
2638;SDS011;1329;51.384;7.122;2022-09-29T03:23:01;12.00;;;10.70;;
2638;SDS011;1329;51.384;7.122;2022-09-29T03:25:30;12.00;;;10.90;;
2638;SDS011;1329;51.384;7.122;2022-09-29T03:27:56;11.57;;;10.57;;
2638;SDS011;1329;51.384;7.122;2022-09-29T03:30:23;12.40;;;11.27;;
2638;SDS011;1329;51.384;7.122;2022-09-29T03:32:50;12.13;;;10.93;;
2638;SDS011;1329;51.384;7.122;2022-09-29T03:35:17;11.60;;;10.50;;
2638;SDS011;1329;51.384;7.122;2022-09-29T03:37:44;12.27;;;10.97;;
2638;SDS011;1329;51.384;7.122;2022-09-29T03:40:11;12.40;;;11.20;;
2638;SDS011;1329;51.384;7.122;2022-09-29T03:42:40;12.33;;;11.20;;
2638;SDS011;1329;51.384;7.122;2022-09-29T03:45:07;11.83;;;10.53;;
2638;SDS011;1329;51.384;7.122;2022-09-29T03:47:35;12.53;;;11.23;;
2638;SDS011;1329;51.384;7.122;2022-09-29T03:50:02;11.03;;;10.03;;
2638;SDS011;1329;51.384;7.122;2022-09-29T03:52:29;11.50;;;10.40;;
2638;SDS011;1329;51.384;7.122;2022-09-29T03:54:56;11.53;;;10.40;;
2638;SDS011;1329;51.384;7.122;2022-09-29T03:57:23;13.17;;;10.70;;
2638;SDS011;1329;51.384;7.122;2022-09-29T03:59:51;12.37;;;11.27;;
2638;SDS011;1329;51.384;7.122;2022-09-29T04:02:18;11.90;;;10.77;;
2638;SDS011;1329;51.384;7.122;2022-09-29T04:04:45;12.17;;;10.97;;
2638;SDS011;1329;51.384;7.122;2022-09-29T04:07:12;11.43;;;10.43;;
2638;SDS011;1329;51.384;7.122;2022-09-29T04:09:39;11.60;;;10.50;;
2638;SDS011;1329;51.384;7.122;2022-09-29T04:12:07;11.37;;;10.27;;
2638;SDS011;1329;51.384;7.122;2022-09-29T04:14:33;11.33;;;10.33;;
2638;SDS011;1329;51.384;7.122;2022-09-29T04:17:02;13.87;;;11.07;;
2638;SDS011;1329;51.384;7.122;2022-09-29T04:19:29;11.17;;;10.03;;
2638;SDS011;1329;51.384;7.122;2022-09-29T04:21:55;12.80;;;10.17;;
2638;SDS011;1329;51.384;7.122;2022-09-29T04:24:23;11.27;;;10.27;;
2638;SDS011;1329;51.384;7.122;2022-09-29T04:26:50;11.47;;;10.27;;
2638;SDS011;1329;51.384;7.122;2022-09-29T04:29:17;11.37;;;10.07;;
2638;SDS011;1329;51.384;7.122;2022-09-29T04:31:44;11.60;;;10.50;;
2638;SDS011;1329;51.384;7.122;2022-09-29T04:34:12;12.07;;;10.67;;
2638;SDS011;1329;51.384;7.122;2022-09-29T04:36:39;11.23;;;10.23;;
2638;SDS011;1329;51.384;7.122;2022-09-29T04:39:06;11.63;;;10.53;;
2638;SDS011;1329;51.384;7.122;2022-09-29T04:41:33;12.10;;;10.60;;
2638;SDS011;1329;51.384;7.122;2022-09-29T04:44:03;11.33;;;10.33;;
2638;SDS011;1329;51.384;7.122;2022-09-29T04:46:31;13.43;;;12.10;;
2638;SDS011;1329;51.384;7.122;2022-09-29T04:48:58;12.83;;;11.53;;
2638;SDS011;1329;51.384;7.122;2022-09-29T04:51:26;12.43;;;11.23;;
2638;SDS011;1329;51.384;7.122;2022-09-29T04:53:53;12.87;;;11.73;;
2638;SDS011;1329;51.384;7.122;2022-09-29T04:56:20;12.40;;;11.30;;
2638;SDS011;1329;51.384;7.122;2022-09-29T04:58:47;13.20;;;11.93;;
2638;SDS011;1329;51.384;7.122;2022-09-29T05:01:14;13.07;;;11.87;;
2638;SDS011;1329;51.384;7.122;2022-09-29T05:03:41;13.10;;;11.83;;
2638;SDS011;1329;51.384;7.122;2022-09-29T05:06:08;12.43;;;11.13;;
2638;SDS011;1329;51.384;7.122;2022-09-29T05:08:37;12.00;;;10.90;;
2638;SDS011;1329;51.384;7.122;2022-09-29T05:11:04;12.33;;;11.13;;
2638;SDS011;1329;51.384;7.122;2022-09-29T05:13:31;12.07;;;10.87;;
2638;SDS011;1329;51.384;7.122;2022-09-29T05:15:59;11.97;;;10.77;;
2638;SDS011;1329;51.384;7.122;2022-09-29T05:18:27;13.00;;;11.70;;
2638;SDS011;1329;51.384;7.122;2022-09-29T05:20:54;12.53;;;11.23;;
2638;SDS011;1329;51.384;7.122;2022-09-29T05:23:22;12.20;;;11.00;;
2638;SDS011;1329;51.384;7.122;2022-09-29T05:25:50;12.20;;;11.00;;
2638;SDS011;1329;51.384;7.122;2022-09-29T05:28:17;12.00;;;10.90;;
2638;SDS011;1329;51.384;7.122;2022-09-29T05:30:44;13.00;;;11.77;;
2638;SDS011;1329;51.384;7.122;2022-09-29T05:33:11;12.77;;;11.60;;
2638;SDS011;1329;51.384;7.122;2022-09-29T05:35:37;12.63;;;11.37;;
2638;SDS011;1329;51.384;7.122;2022-09-29T05:38:05;13.30;;;12.00;;
2638;SDS011;1329;51.384;7.122;2022-09-29T05:40:32;13.63;;;12.33;;
2638;SDS011;1329;51.384;7.122;2022-09-29T05:43:00;12.47;;;11.23;;
2638;SDS011;1329;51.384;7.122;2022-09-29T05:45:27;13.53;;;11.97;;
2638;SDS011;1329;51.384;7.122;2022-09-29T05:47:54;13.50;;;12.07;;
2638;SDS011;1329;51.384;7.122;2022-09-29T05:50:21;13.57;;;12.33;;
2638;SDS011;1329;51.384;7.122;2022-09-29T05:52:48;13.30;;;12.07;;
2638;SDS011;1329;51.384;7.122;2022-09-29T05:55:16;13.77;;;12.37;;
2638;SDS011;1329;51.384;7.122;2022-09-29T05:57:46;13.83;;;12.30;;
2638;SDS011;1329;51.384;7.122;2022-09-29T06:00:16;12.70;;;11.53;;
2638;SDS011;1329;51.384;7.122;2022-09-29T06:02:43;12.93;;;11.73;;
2638;SDS011;1329;51.384;7.122;2022-09-29T06:05:09;13.03;;;11.73;;
2638;SDS011;1329;51.384;7.122;2022-09-29T06:07:36;12.80;;;11.60;;
2638;SDS011;1329;51.384;7.122;2022-09-29T06:10:03;13.07;;;11.77;;
2638;SDS011;1329;51.384;7.122;2022-09-29T06:12:32;12.80;;;11.60;;
2638;SDS011;1329;51.384;7.122;2022-09-29T06:15:01;13.27;;;11.97;;
2638;SDS011;1329;51.384;7.122;2022-09-29T06:17:30;13.03;;;11.73;;
2638;SDS011;1329;51.384;7.122;2022-09-29T06:19:58;12.97;;;11.77;;
2638;SDS011;1329;51.384;7.122;2022-09-29T06:22:25;13.10;;;11.80;;
2638;SDS011;1329;51.384;7.122;2022-09-29T06:24:52;13.30;;;12.10;;
2638;SDS011;1329;51.384;7.122;2022-09-29T06:27:19;13.77;;;11.70;;
2638;SDS011;1329;51.384;7.122;2022-09-29T06:29:46;13.97;;;12.57;;
2638;SDS011;1329;51.384;7.122;2022-09-29T06:32:13;13.70;;;12.40;;
2638;SDS011;1329;51.384;7.122;2022-09-29T06:34:42;13.60;;;12.30;;
2638;SDS011;1329;51.384;7.122;2022-09-29T06:37:23;13.03;;;11.83;;
2638;SDS011;1329;51.384;7.122;2022-09-29T06:40:04;13.20;;;11.90;;
2638;SDS011;1329;51.384;7.122;2022-09-29T06:42:33;12.90;;;11.63;;
2638;SDS011;1329;51.384;7.122;2022-09-29T06:45:00;13.00;;;11.70;;
2638;SDS011;1329;51.384;7.122;2022-09-29T06:47:27;13.03;;;11.83;;
2638;SDS011;1329;51.384;7.122;2022-09-29T06:49:55;13.70;;;12.40;;
2638;SDS011;1329;51.384;7.122;2022-09-29T06:52:25;12.90;;;11.67;;
2638;SDS011;1329;51.384;7.122;2022-09-29T06:54:52;12.90;;;11.70;;
2638;SDS011;1329;51.384;7.122;2022-09-29T06:57:19;15.73;;;14.27;;
2638;SDS011;1329;51.384;7.122;2022-09-29T06:59:46;15.93;;;14.40;;
2638;SDS011;1329;51.384;7.122;2022-09-29T07:02:13;13.43;;;12.07;;
2638;SDS011;1329;51.384;7.122;2022-09-29T07:04:40;13.23;;;11.93;;
2638;SDS011;1329;51.384;7.122;2022-09-29T07:07:13;12.63;;;11.40;;
2638;SDS011;1329;51.384;7.122;2022-09-29T07:09:40;14.77;;;13.27;;
2638;SDS011;1329;51.384;7.122;2022-09-29T07:12:07;14.77;;;13.37;;
2638;SDS011;1329;51.384;7.122;2022-09-29T07:14:35;13.37;;;12.17;;
2638;SDS011;1329;51.384;7.122;2022-09-29T07:17:02;13.93;;;12.63;;
2638;SDS011;1329;51.384;7.122;2022-09-29T07:19:29;14.83;;;13.43;;
2638;SDS011;1329;51.384;7.122;2022-09-29T07:21:56;14.73;;;13.33;;
2638;SDS011;1329;51.384;7.122;2022-09-29T07:24:24;13.47;;;12.17;;
2638;SDS011;1329;51.384;7.122;2022-09-29T07:26:51;15.33;;;13.83;;
2638;SDS011;1329;51.384;7.122;2022-09-29T07:29:18;16.40;;;14.90;;
2638;SDS011;1329;51.384;7.122;2022-09-29T07:31:45;20.60;;;18.60;;
2638;SDS011;1329;51.384;7.122;2022-09-29T07:34:15;18.23;;;16.53;;
2638;SDS011;1329;51.384;7.122;2022-09-29T07:36:42;18.50;;;16.77;;
2638;SDS011;1329;51.384;7.122;2022-09-29T07:39:09;18.70;;;16.97;;
2638;SDS011;1329;51.384;7.122;2022-09-29T07:41:37;19.87;;;17.87;;
2638;SDS011;1329;51.384;7.122;2022-09-29T07:44:04;17.70;;;16.10;;
2638;SDS011;1329;51.384;7.122;2022-09-29T07:46:31;18.17;;;16.40;;
2638;SDS011;1329;51.384;7.122;2022-09-29T07:48:58;16.07;;;14.47;;
2638;SDS011;1329;51.384;7.122;2022-09-29T07:51:25;15.47;;;13.97;;
2638;SDS011;1329;51.384;7.122;2022-09-29T07:53:52;13.97;;;12.57;;
2638;SDS011;1329;51.384;7.122;2022-09-29T07:56:19;15.70;;;14.20;;
2638;SDS011;1329;51.384;7.122;2022-09-29T07:58:49;18.50;;;16.63;;
2638;SDS011;1329;51.384;7.122;2022-09-29T08:01:17;15.97;;;14.47;;
2638;SDS011;1329;51.384;7.122;2022-09-29T08:03:48;19.73;;;17.90;;
2638;SDS011;1329;51.384;7.122;2022-09-29T08:06:16;15.90;;;14.30;;
2638;SDS011;1329;51.384;7.122;2022-09-29T08:08:43;16.83;;;15.23;;
2638;SDS011;1329;51.384;7.122;2022-09-29T08:11:11;15.57;;;14.07;;
2638;SDS011;1329;51.384;7.122;2022-09-29T08:13:40;13.57;;;12.37;;
2638;SDS011;1329;51.384;7.122;2022-09-29T08:16:09;14.20;;;12.90;;
2638;SDS011;1329;51.384;7.122;2022-09-29T08:18:38;13.67;;;12.47;;
2638;SDS011;1329;51.384;7.122;2022-09-29T08:21:06;13.63;;;12.43;;
2638;SDS011;1329;51.384;7.122;2022-09-29T08:23:34;13.13;;;11.87;;
2638;SDS011;1329;51.384;7.122;2022-09-29T08:26:02;14.43;;;13.07;;
2638;SDS011;1329;51.384;7.122;2022-09-29T08:28:32;13.17;;;11.93;;
2638;SDS011;1329;51.384;7.122;2022-09-29T08:31:01;13.40;;;12.10;;
2638;SDS011;1329;51.384;7.122;2022-09-29T08:33:29;13.30;;;12.03;;
2638;SDS011;1329;51.384;7.122;2022-09-29T08:35:57;13.03;;;11.87;;
2638;SDS011;1329;51.384;7.122;2022-09-29T08:38:25;13.77;;;12.57;;
2638;SDS011;1329;51.384;7.122;2022-09-29T08:40:53;13.87;;;12.47;;
2638;SDS011;1329;51.384;7.122;2022-09-29T08:43:23;12.97;;;11.67;;
2638;SDS011;1329;51.384;7.122;2022-09-29T08:45:55;13.23;;;11.93;;
2638;SDS011;1329;51.384;7.122;2022-09-29T08:48:30;12.87;;;11.63;;
2638;SDS011;1329;51.384;7.122;2022-09-29T08:51:01;13.13;;;11.97;;
2638;SDS011;1329;51.384;7.122;2022-09-29T08:53:30;12.90;;;11.70;;
2638;SDS011;1329;51.384;7.122;2022-09-29T08:56:02;12.87;;;11.70;;
2638;SDS011;1329;51.384;7.122;2022-09-29T08:58:32;12.53;;;11.30;;
2638;SDS011;1329;51.384;7.122;2022-09-29T09:01:02;11.90;;;10.83;;
2638;SDS011;1329;51.384;7.122;2022-09-29T09:03:51;11.13;;;10.13;;
2638;SDS011;1329;51.384;7.122;2022-09-29T09:06:47;11.17;;;10.07;;
2638;SDS011;1329;51.384;7.122;2022-09-29T09:09:36;12.03;;;10.77;;
2638;SDS011;1329;51.384;7.122;2022-09-29T09:12:17;11.03;;;10.03;;
2638;SDS011;1329;51.384;7.122;2022-09-29T09:15:15;10.07;;;9.17;;
2638;SDS011;1329;51.384;7.122;2022-09-29T09:20:57;10.57;;;9.47;;
2638;SDS011;1329;51.384;7.122;2022-09-29T09:23:33;10.87;;;9.87;;
2638;SDS011;1329;51.384;7.122;2022-09-29T09:26:12;10.50;;;9.50;;
2638;SDS011;1329;51.384;7.122;2022-09-29T09:28:40;10.20;;;9.23;;
2638;SDS011;1329;51.384;7.122;2022-09-29T09:31:15;9.07;;;8.17;;
2638;SDS011;1329;51.384;7.122;2022-09-29T09:33:46;9.68;;;8.60;;
2638;SDS011;1329;51.384;7.122;2022-09-29T09:36:22;9.18;;;8.45;;
2638;SDS011;1329;51.384;7.122;2022-09-29T09:38:56;9.32;;;8.43;;
2638;SDS011;1329;51.384;7.122;2022-09-29T09:41:28;9.82;;;8.52;;
2638;SDS011;1329;51.384;7.122;2022-09-29T09:43:58;9.88;;;8.90;;
2638;SDS011;1329;51.384;7.122;2022-09-29T09:46:34;9.30;;;8.40;;
2638;SDS011;1329;51.384;7.122;2022-09-29T09:49:10;9.23;;;8.25;;
2638;SDS011;1329;51.384;7.122;2022-09-29T09:51:47;8.85;;;7.95;;
2638;SDS011;1329;51.384;7.122;2022-09-29T09:54:24;7.72;;;6.97;;
2638;SDS011;1329;51.384;7.122;2022-09-29T09:57:08;9.02;;;7.05;;
2638;SDS011;1329;51.384;7.122;2022-09-29T10:00:10;7.38;;;6.60;;
2638;SDS011;1329;51.384;7.122;2022-09-29T10:02:41;6.20;;;5.65;;
2638;SDS011;1329;51.384;7.122;2022-09-29T10:05:11;6.03;;;5.53;;
2638;SDS011;1329;51.384;7.122;2022-09-29T10:07:41;5.95;;;5.40;;
2638;SDS011;1329;51.384;7.122;2022-09-29T10:10:14;5.10;;;4.70;;
2638;SDS011;1329;51.384;7.122;2022-09-29T10:12:44;5.47;;;4.97;;
2638;SDS011;1329;51.384;7.122;2022-09-29T10:15:14;5.00;;;4.55;;
2638;SDS011;1329;51.384;7.122;2022-09-29T10:17:48;5.88;;;5.38;;
2638;SDS011;1329;51.384;7.122;2022-09-29T10:20:30;4.78;;;4.32;;
2638;SDS011;1329;51.384;7.122;2022-09-29T10:26:06;4.28;;;3.85;;
2638;SDS011;1329;51.384;7.122;2022-09-29T10:28:40;5.57;;;4.13;;
2638;SDS011;1329;51.384;7.122;2022-09-29T10:31:14;6.18;;;4.57;;
2638;SDS011;1329;51.384;7.122;2022-09-29T10:33:48;4.18;;;3.85;;
2638;SDS011;1329;51.384;7.122;2022-09-29T10:36:18;4.88;;;3.70;;
2638;SDS011;1329;51.384;7.122;2022-09-29T10:38:49;4.55;;;4.15;;
2638;SDS011;1329;51.384;7.122;2022-09-29T10:41:17;4.05;;;3.65;;
2638;SDS011;1329;51.384;7.122;2022-09-29T10:43:45;4.57;;;3.38;;
2638;SDS011;1329;51.384;7.122;2022-09-29T10:46:46;4.03;;;3.63;;
2638;SDS011;1329;51.384;7.122;2022-09-29T10:49:17;3.80;;;3.45;;
2638;SDS011;1329;51.384;7.122;2022-09-29T10:51:56;3.67;;;3.35;;
2638;SDS011;1329;51.384;7.122;2022-09-29T10:54:28;3.85;;;3.55;;
2638;SDS011;1329;51.384;7.122;2022-09-29T10:56:57;4.10;;;3.70;;
2638;SDS011;1329;51.384;7.122;2022-09-29T10:59:25;3.95;;;3.65;;
2638;SDS011;1329;51.384;7.122;2022-09-29T11:01:54;3.67;;;3.38;;
2638;SDS011;1329;51.384;7.122;2022-09-29T11:04:24;3.97;;;3.67;;
2638;SDS011;1329;51.384;7.122;2022-09-29T11:06:55;3.67;;;3.38;;
2638;SDS011;1329;51.384;7.122;2022-09-29T11:09:28;4.10;;;3.55;;
2638;SDS011;1329;51.384;7.122;2022-09-29T11:11:57;3.60;;;3.30;;
2638;SDS011;1329;51.384;7.122;2022-09-29T11:14:25;3.58;;;3.28;;
2638;SDS011;1329;51.384;7.122;2022-09-29T11:16:56;4.18;;;3.42;;
2638;SDS011;1329;51.384;7.122;2022-09-29T11:19:25;3.45;;;3.03;;
2638;SDS011;1329;51.384;7.122;2022-09-29T11:22:08;2.80;;;2.55;;
2638;SDS011;1329;51.384;7.122;2022-09-29T11:25:22;2.65;;;2.45;;
2638;SDS011;1329;51.384;7.122;2022-09-29T11:28:20;3.40;;;3.00;;
2638;SDS011;1329;51.384;7.122;2022-09-29T11:31:11;2.97;;;2.63;;
2638;SDS011;1329;51.384;7.122;2022-09-29T11:33:55;3.10;;;2.72;;
2638;SDS011;1329;51.384;7.122;2022-09-29T11:36:37;2.88;;;2.53;;
2638;SDS011;1329;51.384;7.122;2022-09-29T11:39:17;2.80;;;2.60;;
2638;SDS011;1329;51.384;7.122;2022-09-29T11:42:01;2.90;;;2.60;;
2638;SDS011;1329;51.384;7.122;2022-09-29T11:44:55;3.17;;;2.88;;
2638;SDS011;1329;51.384;7.122;2022-09-29T11:47:28;4.20;;;2.85;;
2638;SDS011;1329;51.384;7.122;2022-09-29T11:50:12;3.05;;;2.70;;
2638;SDS011;1329;51.384;7.122;2022-09-29T11:53:08;3.35;;;2.83;;
2638;SDS011;1329;51.384;7.122;2022-09-29T11:55:51;3.03;;;2.53;;
2638;SDS011;1329;51.384;7.122;2022-09-29T11:58:33;2.58;;;2.38;;
2638;SDS011;1329;51.384;7.122;2022-09-29T12:01:18;2.75;;;2.53;;
2638;SDS011;1329;51.384;7.122;2022-09-29T12:03:59;2.47;;;2.28;;
2638;SDS011;1329;51.384;7.122;2022-09-29T12:06:49;2.75;;;2.47;;
2638;SDS011;1329;51.384;7.122;2022-09-29T12:09:27;3.55;;;2.60;;
2638;SDS011;1329;51.384;7.122;2022-09-29T12:12:22;2.63;;;2.42;;
2638;SDS011;1329;51.384;7.122;2022-09-29T12:14:59;2.95;;;2.70;;
2638;SDS011;1329;51.384;7.122;2022-09-29T12:17:36;3.17;;;2.63;;
2638;SDS011;1329;51.384;7.122;2022-09-29T12:20:13;2.72;;;2.53;;
2638;SDS011;1329;51.384;7.122;2022-09-29T12:22:44;2.67;;;2.47;;
2638;SDS011;1329;51.384;7.122;2022-09-29T12:25:15;3.10;;;2.80;;
2638;SDS011;1329;51.384;7.122;2022-09-29T12:27:44;3.65;;;3.05;;
2638;SDS011;1329;51.384;7.122;2022-09-29T12:30:17;3.53;;;2.72;;
2638;SDS011;1329;51.384;7.122;2022-09-29T12:32:49;3.72;;;2.72;;
2638;SDS011;1329;51.384;7.122;2022-09-29T12:35:22;2.97;;;2.67;;
2638;SDS011;1329;51.384;7.122;2022-09-29T12:37:59;3.65;;;2.70;;
2638;SDS011;1329;51.384;7.122;2022-09-29T12:40:40;2.25;;;2.00;;
2638;SDS011;1329;51.384;7.122;2022-09-29T12:43:14;2.58;;;2.20;;
2638;SDS011;1329;51.384;7.122;2022-09-29T12:45:50;2.28;;;2.08;;
2638;SDS011;1329;51.384;7.122;2022-09-29T12:48:25;2.88;;;2.38;;
2638;SDS011;1329;51.384;7.122;2022-09-29T12:51:06;2.47;;;2.20;;
2638;SDS011;1329;51.384;7.122;2022-09-29T12:53:38;2.63;;;2.10;;
2638;SDS011;1329;51.384;7.122;2022-09-29T12:56:17;2.20;;;2.00;;
2638;SDS011;1329;51.384;7.122;2022-09-29T12:58:51;2.88;;;1.85;;
2638;SDS011;1329;51.384;7.122;2022-09-29T13:01:29;2.20;;;2.00;;
2638;SDS011;1329;51.384;7.122;2022-09-29T13:07:06;2.17;;;1.98;;
2638;SDS011;1329;51.384;7.122;2022-09-29T13:13:12;2.28;;;2.00;;
2638;SDS011;1329;51.384;7.122;2022-09-29T13:16:10;3.97;;;2.25;;
2638;SDS011;1329;51.384;7.122;2022-09-29T13:19:04;2.15;;;1.95;;
2638;SDS011;1329;51.384;7.122;2022-09-29T13:22:20;2.67;;;2.10;;
2638;SDS011;1329;51.384;7.122;2022-09-29T13:25:20;2.08;;;1.90;;
2638;SDS011;1329;51.384;7.122;2022-09-29T13:27:52;1.92;;;1.70;;
2638;SDS011;1329;51.384;7.122;2022-09-29T13:30:21;2.30;;;2.10;;
2638;SDS011;1329;51.384;7.122;2022-09-29T13:32:55;1.70;;;1.60;;
2638;SDS011;1329;51.384;7.122;2022-09-29T13:35:28;2.63;;;1.75;;
2638;SDS011;1329;51.384;7.122;2022-09-29T13:38:05;2.47;;;1.70;;
2638;SDS011;1329;51.384;7.122;2022-09-29T13:40:37;2.03;;;1.83;;
2638;SDS011;1329;51.384;7.122;2022-09-29T13:43:04;2.55;;;2.13;;
2638;SDS011;1329;51.384;7.122;2022-09-29T13:45:40;1.77;;;1.67;;
2638;SDS011;1329;51.384;7.122;2022-09-29T13:54:26;1.63;;;1.52;;
2638;SDS011;1329;51.384;7.122;2022-09-29T13:57:05;4.43;;;2.10;;
2638;SDS011;1329;51.384;7.122;2022-09-29T14:03:02;3.15;;;2.10;;
2638;SDS011;1329;51.384;7.122;2022-09-29T14:06:00;2.63;;;1.80;;
2638;SDS011;1329;51.384;7.122;2022-09-29T14:08:36;1.90;;;1.80;;
2638;SDS011;1329;51.384;7.122;2022-09-29T14:11:12;2.00;;;1.80;;
2638;SDS011;1329;51.384;7.122;2022-09-29T14:13:46;2.35;;;1.60;;
2638;SDS011;1329;51.384;7.122;2022-09-29T14:16:30;2.20;;;1.60;;
2638;SDS011;1329;51.384;7.122;2022-09-29T14:19:22;2.33;;;1.70;;
2638;SDS011;1329;51.384;7.122;2022-09-29T14:25:28;2.13;;;1.42;;
2638;SDS011;1329;51.384;7.122;2022-09-29T14:28:18;1.90;;;1.70;;
2638;SDS011;1329;51.384;7.122;2022-09-29T14:31:03;2.20;;;1.55;;
2638;SDS011;1329;51.384;7.122;2022-09-29T14:33:46;2.47;;;1.70;;
2638;SDS011;1329;51.384;7.122;2022-09-29T14:36:17;1.90;;;1.70;;
2638;SDS011;1329;51.384;7.122;2022-09-29T14:38:46;2.03;;;1.67;;
2638;SDS011;1329;51.384;7.122;2022-09-29T14:41:21;1.70;;;1.60;;
2638;SDS011;1329;51.384;7.122;2022-09-29T14:43:53;1.63;;;1.45;;
2638;SDS011;1329;51.384;7.122;2022-09-29T14:46:39;2.78;;;1.80;;
2638;SDS011;1329;51.384;7.122;2022-09-29T14:49:53;1.83;;;1.60;;
2638;SDS011;1329;51.384;7.122;2022-09-29T14:53:14;2.58;;;1.60;;
2638;SDS011;1329;51.384;7.122;2022-09-29T14:56:08;3.35;;;1.90;;
2638;SDS011;1329;51.384;7.122;2022-09-29T14:58:56;2.33;;;1.80;;
2638;SDS011;1329;51.384;7.122;2022-09-29T15:01:34;2.30;;;1.65;;
2638;SDS011;1329;51.384;7.122;2022-09-29T15:04:22;1.98;;;1.80;;
2638;SDS011;1329;51.384;7.122;2022-09-29T15:06:50;2.00;;;1.80;;
2638;SDS011;1329;51.384;7.122;2022-09-29T15:09:18;2.33;;;2.13;;
2638;SDS011;1329;51.384;7.122;2022-09-29T15:11:49;2.25;;;1.90;;
2638;SDS011;1329;51.384;7.122;2022-09-29T15:14:22;2.58;;;1.80;;
2638;SDS011;1329;51.384;7.122;2022-09-29T15:16:58;1.60;;;1.50;;
2638;SDS011;1329;51.384;7.122;2022-09-29T15:19:41;2.25;;;1.90;;
2638;SDS011;1329;51.384;7.122;2022-09-29T15:22:26;1.77;;;1.65;;
2638;SDS011;1329;51.384;7.122;2022-09-29T15:25:21;2.08;;;1.83;;
2638;SDS011;1329;51.384;7.122;2022-09-29T15:27:55;2.40;;;1.98;;
2638;SDS011;1329;51.384;7.122;2022-09-29T15:30:25;2.63;;;2.20;;
2638;SDS011;1329;51.384;7.122;2022-09-29T15:33:08;2.15;;;1.95;;
2638;SDS011;1329;51.384;7.122;2022-09-29T15:35:44;2.63;;;2.00;;
2638;SDS011;1329;51.384;7.122;2022-09-29T15:38:26;2.33;;;1.90;;
2638;SDS011;1329;51.384;7.122;2022-09-29T15:40:59;2.97;;;1.75;;
2638;SDS011;1329;51.384;7.122;2022-09-29T15:43:37;2.00;;;1.80;;
2638;SDS011;1329;51.384;7.122;2022-09-29T15:46:14;2.50;;;2.05;;
2638;SDS011;1329;51.384;7.122;2022-09-29T15:49:03;2.60;;;1.88;;
2638;SDS011;1329;51.384;7.122;2022-09-29T15:51:35;2.63;;;2.28;;
2638;SDS011;1329;51.384;7.122;2022-09-29T15:54:02;3.22;;;2.00;;
2638;SDS011;1329;51.384;7.122;2022-09-29T15:56:34;2.33;;;2.10;;
2638;SDS011;1329;51.384;7.122;2022-09-29T16:02:11;1.83;;;1.60;;
2638;SDS011;1329;51.384;7.122;2022-09-29T16:04:45;1.83;;;1.45;;
2638;SDS011;1329;51.384;7.122;2022-09-29T16:07:16;1.63;;;1.48;;